sensor_id;sensor_type;location;lat;lon;timestamp;pressure;altitude;pressure_sealevel;temperature;humidity
74403;BME280;62837;51.082;13.744;2023-12-04T00:01:50;101004.69;;;-2.13;76.22
74403;BME280;62837;51.082;13.744;2023-12-04T00:04:21;101005.46;;;-2.15;76.93
74403;BME280;62837;51.082;13.744;2023-12-04T00:06:52;101010.17;;;-2.15;76.69
74403;BME280;62837;51.082;13.744;2023-12-04T00:09:23;101011.75;;;-2.17;76.46
74403;BME280;62837;51.082;13.744;2023-12-04T00:11:57;101013.12;;;-2.18;76.64
74403;BME280;62837;51.082;13.744;2023-12-04T00:14:27;101013.64;;;-2.22;76.43
74403;BME280;62837;51.082;13.744;2023-12-04T00:16:58;101012.36;;;-2.28;76.46
74403;BME280;62837;51.082;13.744;2023-12-04T00:19:29;101012.98;;;-2.30;76.68
74403;BME280;62837;51.082;13.744;2023-12-04T00:22:00;101001.81;;;-2.37;76.95
74403;BME280;62837;51.082;13.744;2023-12-04T00:24:31;101012.58;;;-2.32;76.96
74403;BME280;62837;51.082;13.744;2023-12-04T00:27:02;101006.86;;;-2.37;76.93
74403;BME280;62837;51.082;13.744;2023-12-04T00:29:33;101000.44;;;-2.42;76.93
74403;BME280;62837;51.082;13.744;2023-12-04T00:32:05;101002.30;;;-2.46;77.35
74403;BME280;62837;51.082;13.744;2023-12-04T00:34:36;101000.08;;;-2.47;77.17
74403;BME280;62837;51.082;13.744;2023-12-04T00:37:07;100999.30;;;-2.48;76.97
74403;BME280;62837;51.082;13.744;2023-12-04T00:39:38;100992.17;;;-2.47;77.60
74403;BME280;62837;51.082;13.744;2023-12-04T00:42:09;100988.83;;;-2.46;77.62
74403;BME280;62837;51.082;13.744;2023-12-04T00:44:39;100984.34;;;-2.44;77.82
74403;BME280;62837;51.082;13.744;2023-12-04T00:47:10;100978.85;;;-2.44;78.19
74403;BME280;62837;51.082;13.744;2023-12-04T00:49:41;100979.22;;;-2.47;77.93
74403;BME280;62837;51.082;13.744;2023-12-04T00:52:12;100978.79;;;-2.53;78.21
74403;BME280;62837;51.082;13.744;2023-12-04T00:54:43;100983.92;;;-2.47;78.56
74403;BME280;62837;51.082;13.744;2023-12-04T00:57:14;100980.24;;;-2.43;78.33
74403;BME280;62837;51.082;13.744;2023-12-04T00:59:44;100978.07;;;-2.41;77.54
74403;BME280;62837;51.082;13.744;2023-12-04T01:02:15;100972.09;;;-2.39;77.58
74403;BME280;62837;51.082;13.744;2023-12-04T01:04:46;100974.11;;;-2.39;77.09
74403;BME280;62837;51.082;13.744;2023-12-04T01:07:17;100975.03;;;-2.41;76.73
74403;BME280;62837;51.082;13.744;2023-12-04T01:09:48;100976.38;;;-2.46;76.48
74403;BME280;62837;51.082;13.744;2023-12-04T01:12:19;100980.17;;;-2.52;76.60
74403;BME280;62837;51.082;13.744;2023-12-04T01:14:50;100982.88;;;-2.61;76.21
74403;BME280;62837;51.082;13.744;2023-12-04T01:17:22;100981.10;;;-2.72;76.13
74403;BME280;62837;51.082;13.744;2023-12-04T01:19:53;100981.59;;;-2.78;76.07
74403;BME280;62837;51.082;13.744;2023-12-04T01:22:24;100987.91;;;-2.85;75.93
74403;BME280;62837;51.082;13.744;2023-12-04T01:24:56;100988.84;;;-2.91;76.04
74403;BME280;62837;51.082;13.744;2023-12-04T01:27:26;100992.67;;;-2.91;76.67
74403;BME280;62837;51.082;13.744;2023-12-04T01:29:58;100999.13;;;-2.91;76.72
74403;BME280;62837;51.082;13.744;2023-12-04T01:32:29;101000.92;;;-2.93;76.13
74403;BME280;62837;51.082;13.744;2023-12-04T01:35:00;101001.58;;;-2.96;76.02
74403;BME280;62837;51.082;13.744;2023-12-04T01:37:31;101000.45;;;-2.97;76.63
74403;BME280;62837;51.082;13.744;2023-12-04T01:40:03;101003.48;;;-2.99;76.12
74403;BME280;62837;51.082;13.744;2023-12-04T01:42:36;100994.30;;;-3.04;76.75
74403;BME280;62837;51.082;13.744;2023-12-04T01:45:09;101000.30;;;-3.01;76.17
74403;BME280;62837;51.082;13.744;2023-12-04T01:47:40;101000.19;;;-3.07;75.99
74403;BME280;62837;51.082;13.744;2023-12-04T01:50:12;100994.90;;;-3.12;76.33
74403;BME280;62837;51.082;13.744;2023-12-04T01:52:43;100997.38;;;-3.13;76.00
74403;BME280;62837;51.082;13.744;2023-12-04T01:55:14;100995.77;;;-3.13;75.97
74403;BME280;62837;51.082;13.744;2023-12-04T01:57:45;100993.45;;;-3.13;76.12
74403;BME280;62837;51.082;13.744;2023-12-04T02:00:18;100988.74;;;-3.13;76.29
74403;BME280;62837;51.082;13.744;2023-12-04T02:02:50;100988.83;;;-3.10;76.50
74403;BME280;62837;51.082;13.744;2023-12-04T02:05:22;100990.15;;;-3.06;76.99
74403;BME280;62837;51.082;13.744;2023-12-04T02:07:54;100985.41;;;-3.01;76.52
74403;BME280;62837;51.082;13.744;2023-12-04T02:10:25;100984.40;;;-2.96;76.72
74403;BME280;62837;51.082;13.744;2023-12-04T02:12:56;100979.08;;;-2.92;77.54
74403;BME280;62837;51.082;13.744;2023-12-04T02:15:27;100974.30;;;-2.87;77.60
74403;BME280;62837;51.082;13.744;2023-12-04T02:17:59;100963.84;;;-2.85;77.11
74403;BME280;62837;51.082;13.744;2023-12-04T02:20:34;100958.99;;;-2.87;77.12
74403;BME280;62837;51.082;13.744;2023-12-04T02:23:05;100957.23;;;-2.96;76.46
74403;BME280;62837;51.082;13.744;2023-12-04T02:25:36;100956.40;;;-3.01;77.24
74403;BME280;62837;51.082;13.744;2023-12-04T02:28:10;100957.42;;;-3.07;76.48
74403;BME280;62837;51.082;13.744;2023-12-04T02:30:43;100950.08;;;-3.17;76.86
74403;BME280;62837;51.082;13.744;2023-12-04T02:33:17;100949.05;;;-3.21;76.33
74403;BME280;62837;51.082;13.744;2023-12-04T02:35:51;100949.17;;;-3.27;76.10
74403;BME280;62837;51.082;13.744;2023-12-04T02:38:24;100947.70;;;-3.35;76.56
74403;BME280;62837;51.082;13.744;2023-12-04T02:40:56;100948.77;;;-3.37;76.11
74403;BME280;62837;51.082;13.744;2023-12-04T02:43:27;100947.87;;;-3.39;75.99
74403;BME280;62837;51.082;13.744;2023-12-04T02:45:58;100942.34;;;-3.43;75.98
74403;BME280;62837;51.082;13.744;2023-12-04T02:48:29;100936.33;;;-3.45;75.65
74403;BME280;62837;51.082;13.744;2023-12-04T02:51:00;100929.27;;;-3.48;75.49
74403;BME280;62837;51.082;13.744;2023-12-04T02:53:30;100921.68;;;-3.51;75.71
74403;BME280;62837;51.082;13.744;2023-12-04T02:56:01;100920.48;;;-3.55;75.84
74403;BME280;62837;51.082;13.744;2023-12-04T02:58:32;100915.21;;;-3.58;75.62
74403;BME280;62837;51.082;13.744;2023-12-04T03:01:05;100908.57;;;-3.61;75.74
74403;BME280;62837;51.082;13.744;2023-12-04T03:03:36;100900.73;;;-3.66;76.02
74403;BME280;62837;51.082;13.744;2023-12-04T03:06:08;100894.39;;;-3.73;76.82
74403;BME280;62837;51.082;13.744;2023-12-04T03:08:39;100892.55;;;-3.79;76.79
74403;BME280;62837;51.082;13.744;2023-12-04T03:11:10;100890.19;;;-3.81;77.13
74403;BME280;62837;51.082;13.744;2023-12-04T03:13:40;100889.51;;;-3.81;77.01
74403;BME280;62837;51.082;13.744;2023-12-04T03:16:17;100888.27;;;-3.81;77.26
74403;BME280;62837;51.082;13.744;2023-12-04T03:18:48;100886.48;;;-3.78;76.32
74403;BME280;62837;51.082;13.744;2023-12-04T03:21:19;100887.77;;;-3.75;76.43
74403;BME280;62837;51.082;13.744;2023-12-04T03:23:50;100890.59;;;-3.72;76.55
74403;BME280;62837;51.082;13.744;2023-12-04T03:26:21;100887.36;;;-3.71;76.30
74403;BME280;62837;51.082;13.744;2023-12-04T03:28:51;100889.02;;;-3.69;75.97
74403;BME280;62837;51.082;13.744;2023-12-04T03:31:22;100884.55;;;-3.70;76.19
74403;BME280;62837;51.082;13.744;2023-12-04T03:33:53;100887.41;;;-3.69;75.96
74403;BME280;62837;51.082;13.744;2023-12-04T03:36:24;100884.66;;;-3.69;76.11
74403;BME280;62837;51.082;13.744;2023-12-04T03:38:56;100882.31;;;-3.67;76.30
74403;BME280;62837;51.082;13.744;2023-12-04T03:41:27;100880.52;;;-3.65;76.26
74403;BME280;62837;51.082;13.744;2023-12-04T03:43:57;100876.27;;;-3.67;76.42
74403;BME280;62837;51.082;13.744;2023-12-04T03:46:28;100866.02;;;-3.69;76.11
74403;BME280;62837;51.082;13.744;2023-12-04T03:48:59;100871.45;;;-3.69;76.46
74403;BME280;62837;51.082;13.744;2023-12-04T03:51:30;100867.15;;;-3.69;76.26
74403;BME280;62837;51.082;13.744;2023-12-04T03:54:01;100862.23;;;-3.76;75.86
74403;BME280;62837;51.082;13.744;2023-12-04T03:56:32;100858.89;;;-3.81;76.12
74403;BME280;62837;51.082;13.744;2023-12-04T03:59:02;100866.18;;;-3.83;76.59
74403;BME280;62837;51.082;13.744;2023-12-04T04:01:33;100872.35;;;-3.82;76.55
74403;BME280;62837;51.082;13.744;2023-12-04T04:04:04;100873.71;;;-3.79;76.32
74403;BME280;62837;51.082;13.744;2023-12-04T04:06:36;100868.52;;;-3.77;76.23
74403;BME280;62837;51.082;13.744;2023-12-04T04:09:08;100865.73;;;-3.78;75.97
74403;BME280;62837;51.082;13.744;2023-12-04T04:11:39;100863.60;;;-3.80;76.18
74403;BME280;62837;51.082;13.744;2023-12-04T04:14:10;100861.70;;;-3.79;76.27
74403;BME280;62837;51.082;13.744;2023-12-04T04:16:41;100853.98;;;-3.79;76.30
74403;BME280;62837;51.082;13.744;2023-12-04T04:19:12;100847.44;;;-3.78;76.24
74403;BME280;62837;51.082;13.744;2023-12-04T04:21:43;100851.72;;;-3.78;75.93
74403;BME280;62837;51.082;13.744;2023-12-04T04:24:14;100851.20;;;-3.80;75.93
74403;BME280;62837;51.082;13.744;2023-12-04T04:26:45;100842.04;;;-3.88;75.83
74403;BME280;62837;51.082;13.744;2023-12-04T04:29:15;100851.63;;;-3.86;75.89
74403;BME280;62837;51.082;13.744;2023-12-04T04:31:46;100853.48;;;-3.86;75.81
74403;BME280;62837;51.082;13.744;2023-12-04T04:34:17;100846.15;;;-3.90;75.39
74403;BME280;62837;51.082;13.744;2023-12-04T04:36:48;100843.38;;;-3.93;75.95
74403;BME280;62837;51.082;13.744;2023-12-04T04:39:18;100837.73;;;-3.94;75.95
74403;BME280;62837;51.082;13.744;2023-12-04T04:41:49;100832.23;;;-3.94;75.55
74403;BME280;62837;51.082;13.744;2023-12-04T04:44:20;100832.77;;;-3.94;75.74
74403;BME280;62837;51.082;13.744;2023-12-04T04:46:53;100827.11;;;-3.95;75.61
74403;BME280;62837;51.082;13.744;2023-12-04T04:49:24;100828.62;;;-3.96;75.37
74403;BME280;62837;51.082;13.744;2023-12-04T04:51:55;100823.87;;;-3.97;75.36
74403;BME280;62837;51.082;13.744;2023-12-04T04:54:25;100817.52;;;-3.99;75.17
74403;BME280;62837;51.082;13.744;2023-12-04T04:56:56;100816.45;;;-4.01;75.07
74403;BME280;62837;51.082;13.744;2023-12-04T04:59:30;100818.64;;;-4.03;75.28
74403;BME280;62837;51.082;13.744;2023-12-04T05:02:01;100817.38;;;-4.04;75.28
74403;BME280;62837;51.082;13.744;2023-12-04T05:04:32;100814.20;;;-4.05;74.76
74403;BME280;62837;51.082;13.744;2023-12-04T05:07:03;100818.17;;;-4.04;74.78
74403;BME280;62837;51.082;13.744;2023-12-04T05:09:34;100818.20;;;-4.04;74.80
74403;BME280;62837;51.082;13.744;2023-12-04T05:12:06;100823.87;;;-4.09;74.57
74403;BME280;62837;51.082;13.744;2023-12-04T05:14:37;100834.44;;;-4.10;74.89
74403;BME280;62837;51.082;13.744;2023-12-04T05:17:08;100832.96;;;-4.08;74.86
74403;BME280;62837;51.082;13.744;2023-12-04T05:19:39;100831.77;;;-4.04;74.88
74403;BME280;62837;51.082;13.744;2023-12-04T05:22:10;100824.79;;;-4.00;75.02
74403;BME280;62837;51.082;13.744;2023-12-04T05:24:41;100829.55;;;-3.92;74.80
74403;BME280;62837;51.082;13.744;2023-12-04T05:27:12;100828.11;;;-3.87;75.16
74403;BME280;62837;51.082;13.744;2023-12-04T05:29:42;100829.41;;;-3.80;75.47
74403;BME280;62837;51.082;13.744;2023-12-04T05:32:14;100823.25;;;-3.74;75.39
74403;BME280;62837;51.082;13.744;2023-12-04T05:34:45;100816.80;;;-3.69;75.81
74403;BME280;62837;51.082;13.744;2023-12-04T05:37:15;100809.65;;;-3.64;75.53
74403;BME280;62837;51.082;13.744;2023-12-04T05:39:46;100799.85;;;-3.60;75.64
74403;BME280;62837;51.082;13.744;2023-12-04T05:42:17;100792.13;;;-3.58;75.56
74403;BME280;62837;51.082;13.744;2023-12-04T05:44:48;100786.39;;;-3.53;76.01
74403;BME280;62837;51.082;13.744;2023-12-04T05:47:19;100782.62;;;-3.42;77.22
74403;BME280;62837;51.082;13.744;2023-12-04T05:49:50;100777.63;;;-3.32;77.13
74403;BME280;62837;51.082;13.744;2023-12-04T05:52:20;100766.49;;;-3.20;77.88
74403;BME280;62837;51.082;13.744;2023-12-04T05:54:51;100759.77;;;-3.04;78.32
74403;BME280;62837;51.082;13.744;2023-12-04T05:57:22;100752.13;;;-2.88;78.50
74403;BME280;62837;51.082;13.744;2023-12-04T05:59:53;100742.34;;;-2.71;79.14
74403;BME280;62837;51.082;13.744;2023-12-04T06:02:23;100736.55;;;-2.54;78.52
74403;BME280;62837;51.082;13.744;2023-12-04T06:04:54;100731.22;;;-2.41;78.71
74403;BME280;62837;51.082;13.744;2023-12-04T06:07:25;100722.81;;;-2.29;77.97
74403;BME280;62837;51.082;13.744;2023-12-04T06:09:56;100712.65;;;-2.21;77.61
74403;BME280;62837;51.082;13.744;2023-12-04T06:12:27;100710.15;;;-2.13;77.32
74403;BME280;62837;51.082;13.744;2023-12-04T06:14:58;100715.40;;;-2.07;77.21
74403;BME280;62837;51.082;13.744;2023-12-04T06:17:29;100719.95;;;-2.01;76.54
74403;BME280;62837;51.082;13.744;2023-12-04T06:20:00;100723.27;;;-1.97;75.38
74403;BME280;62837;51.082;13.744;2023-12-04T06:22:31;100726.56;;;-1.93;75.54
74403;BME280;62837;51.082;13.744;2023-12-04T06:25:03;100724.40;;;-1.88;74.81
74403;BME280;62837;51.082;13.744;2023-12-04T06:27:35;100717.12;;;-1.84;74.66
74403;BME280;62837;51.082;13.744;2023-12-04T06:30:09;100716.68;;;-1.80;74.22
74403;BME280;62837;51.082;13.744;2023-12-04T06:32:41;100722.33;;;-1.76;74.15
74403;BME280;62837;51.082;13.744;2023-12-04T06:35:14;100727.52;;;-1.72;73.92
74403;BME280;62837;51.082;13.744;2023-12-04T06:37:49;100731.04;;;-1.67;73.89
74403;BME280;62837;51.082;13.744;2023-12-04T06:40:23;100732.02;;;-1.52;79.60
74403;BME280;62837;51.082;13.744;2023-12-04T06:42:55;100723.20;;;-0.51;91.00
74403;BME280;62837;51.082;13.744;2023-12-04T06:45:27;100723.88;;;-0.37;80.45
74403;BME280;62837;51.082;13.744;2023-12-04T06:47:59;100728.71;;;-0.48;76.85
74403;BME280;62837;51.082;13.744;2023-12-04T06:50:30;100728.13;;;-0.56;74.88
74403;BME280;62837;51.082;13.744;2023-12-04T06:53:00;100728.87;;;-0.65;73.76
74403;BME280;62837;51.082;13.744;2023-12-04T06:55:31;100728.93;;;-0.75;72.88
74403;BME280;62837;51.082;13.744;2023-12-04T06:58:02;100733.02;;;-0.86;72.49
74403;BME280;62837;51.082;13.744;2023-12-04T07:00:33;100733.52;;;-0.95;72.07
74403;BME280;62837;51.082;13.744;2023-12-04T07:03:04;100729.85;;;-0.97;74.02
74403;BME280;62837;51.082;13.744;2023-12-04T07:05:34;100726.58;;;-0.95;73.07
74403;BME280;62837;51.082;13.744;2023-12-04T07:08:05;100729.21;;;-0.98;72.26
74403;BME280;62837;51.082;13.744;2023-12-04T07:10:36;100728.70;;;-1.01;71.89
74403;BME280;62837;51.082;13.744;2023-12-04T07:13:07;100736.57;;;-1.05;71.53
74403;BME280;62837;51.082;13.744;2023-12-04T07:15:38;100735.09;;;-1.08;71.44
74403;BME280;62837;51.082;13.744;2023-12-04T07:18:09;100729.05;;;-1.12;71.41
74403;BME280;62837;51.082;13.744;2023-12-04T07:20:40;100727.76;;;-1.13;71.20
74403;BME280;62837;51.082;13.744;2023-12-04T07:23:11;100725.52;;;-1.15;70.95
74403;BME280;62837;51.082;13.744;2023-12-04T07:25:41;100714.79;;;-1.17;70.64
74403;BME280;62837;51.082;13.744;2023-12-04T07:28:12;100722.73;;;-1.18;70.76
74403;BME280;62837;51.082;13.744;2023-12-04T07:30:43;100721.68;;;-1.18;70.47
74403;BME280;62837;51.082;13.744;2023-12-04T07:33:14;100718.40;;;-1.18;70.46
74403;BME280;62837;51.082;13.744;2023-12-04T07:35:45;100718.17;;;-1.16;70.47
74403;BME280;62837;51.082;13.744;2023-12-04T07:38:16;100713.71;;;-1.14;70.00
74403;BME280;62837;51.082;13.744;2023-12-04T07:40:47;100710.09;;;-1.14;69.79
74403;BME280;62837;51.082;13.744;2023-12-04T07:43:18;100711.48;;;-1.12;69.58
74403;BME280;62837;51.082;13.744;2023-12-04T07:45:48;100716.17;;;-1.08;69.41
74403;BME280;62837;51.082;13.744;2023-12-04T07:48:19;100716.18;;;-1.02;68.94
74403;BME280;62837;51.082;13.744;2023-12-04T07:50:50;100713.19;;;-0.98;68.92
74403;BME280;62837;51.082;13.744;2023-12-04T07:53:21;100716.40;;;-0.95;68.68
74403;BME280;62837;51.082;13.744;2023-12-04T07:55:52;100716.44;;;-0.92;68.67
74403;BME280;62837;51.082;13.744;2023-12-04T07:58:23;100706.92;;;-0.89;68.29
74403;BME280;62837;51.082;13.744;2023-12-04T08:00:53;100698.32;;;-0.87;68.48
74403;BME280;62837;51.082;13.744;2023-12-04T08:03:25;100690.63;;;-0.83;68.37
74403;BME280;62837;51.082;13.744;2023-12-04T08:05:56;100695.23;;;-0.78;68.22
74403;BME280;62837;51.082;13.744;2023-12-04T08:08:28;100697.85;;;-0.69;67.98
74403;BME280;62837;51.082;13.744;2023-12-04T08:10:58;100695.14;;;-0.63;67.83
74403;BME280;62837;51.082;13.744;2023-12-04T08:13:29;100692.10;;;-0.59;67.50
74403;BME280;62837;51.082;13.744;2023-12-04T08:16:00;100694.65;;;-0.53;67.10
74403;BME280;62837;51.082;13.744;2023-12-04T08:18:31;100691.70;;;-0.49;66.84
74403;BME280;62837;51.082;13.744;2023-12-04T08:21:03;100688.83;;;-0.42;66.98
74403;BME280;62837;51.082;13.744;2023-12-04T08:23:34;100691.15;;;-0.33;66.73
74403;BME280;62837;51.082;13.744;2023-12-04T08:26:05;100691.19;;;-0.21;66.51
74403;BME280;62837;51.082;13.744;2023-12-04T08:28:36;100686.42;;;-0.06;66.21
74403;BME280;62837;51.082;13.744;2023-12-04T08:31:11;100693.15;;;0.09;65.79
74403;BME280;62837;51.082;13.744;2023-12-04T08:33:41;100686.85;;;0.19;65.51
74403;BME280;62837;51.082;13.744;2023-12-04T08:36:13;100682.95;;;0.19;65.08
74403;BME280;62837;51.082;13.744;2023-12-04T08:38:45;100686.00;;;0.16;65.05
74403;BME280;62837;51.082;13.744;2023-12-04T08:41:15;100680.22;;;0.16;65.03
74403;BME280;62837;51.082;13.744;2023-12-04T08:43:46;100685.93;;;0.16;65.17
74403;BME280;62837;51.082;13.744;2023-12-04T08:46:17;100681.84;;;0.17;64.99
74403;BME280;62837;51.082;13.744;2023-12-04T08:48:48;100681.25;;;0.12;64.92
74403;BME280;62837;51.082;13.744;2023-12-04T08:51:19;100684.16;;;0.15;64.62
74403;BME280;62837;51.082;13.744;2023-12-04T08:53:50;100684.20;;;0.12;64.57
74403;BME280;62837;51.082;13.744;2023-12-04T08:56:21;100682.77;;;0.11;64.78
74403;BME280;62837;51.082;13.744;2023-12-04T08:58:59;100689.45;;;0.14;64.64
74403;BME280;62837;51.082;13.744;2023-12-04T09:01:30;100682.94;;;0.16;64.51
74403;BME280;62837;51.082;13.744;2023-12-04T09:04:01;100681.05;;;0.20;64.51
74403;BME280;62837;51.082;13.744;2023-12-04T09:06:33;100681.67;;;0.19;64.46
74403;BME280;62837;51.082;13.744;2023-12-04T09:09:07;100678.85;;;0.20;64.43
74403;BME280;62837;51.082;13.744;2023-12-04T09:11:43;100675.17;;;0.22;64.51
74403;BME280;62837;51.082;13.744;2023-12-04T09:14:14;100678.84;;;0.23;64.43
74403;BME280;62837;51.082;13.744;2023-12-04T09:16:45;100676.86;;;0.21;64.15
74403;BME280;62837;51.082;13.744;2023-12-04T09:19:16;100670.48;;;0.16;64.30
74403;BME280;62837;51.082;13.744;2023-12-04T09:21:47;100672.48;;;0.20;64.29
74403;BME280;62837;51.082;13.744;2023-12-04T09:24:31;100669.56;;;0.31;68.94
74403;BME280;62837;51.082;13.744;2023-12-04T09:27:03;100671.66;;;0.43;65.89
74403;BME280;62837;51.082;13.744;2023-12-04T09:29:36;100665.06;;;0.57;69.02
74403;BME280;62837;51.082;13.744;2023-12-04T09:32:07;100668.20;;;0.65;65.63
74403;BME280;62837;51.082;13.744;2023-12-04T09:34:39;100664.05;;;0.66;64.22
74403;BME280;62837;51.082;13.744;2023-12-04T09:37:10;100651.20;;;0.63;64.04
74403;BME280;62837;51.082;13.744;2023-12-04T09:39:42;100649.30;;;0.68;64.33
74403;BME280;62837;51.082;13.744;2023-12-04T09:42:15;100649.79;;;0.73;63.57
74403;BME280;62837;51.082;13.744;2023-12-04T09:44:49;100651.39;;;0.74;63.79
74403;BME280;62837;51.082;13.744;2023-12-04T09:47:24;100638.97;;;0.84;65.19
74403;BME280;62837;51.082;13.744;2023-12-04T09:49:56;100634.70;;;0.93;64.07
74403;BME280;62837;51.082;13.744;2023-12-04T09:52:28;100641.20;;;1.01;63.63
74403;BME280;62837;51.082;13.744;2023-12-04T09:54:59;100628.27;;;1.02;62.86
74403;BME280;62837;51.082;13.744;2023-12-04T09:57:30;100628.23;;;1.04;62.99
74403;BME280;62837;51.082;13.744;2023-12-04T10:00:02;100615.34;;;1.04;62.18
74403;BME280;62837;51.082;13.744;2023-12-04T10:02:42;100617.48;;;1.05;62.88
74403;BME280;62837;51.082;13.744;2023-12-04T10:05:13;100606.04;;;1.16;67.37
74403;BME280;62837;51.082;13.744;2023-12-04T10:07:44;100602.25;;;1.32;63.99
74403;BME280;62837;51.082;13.744;2023-12-04T10:10:15;100592.61;;;1.30;62.95
74403;BME280;62837;51.082;13.744;2023-12-04T10:12:46;100582.25;;;1.27;62.19
74403;BME280;62837;51.082;13.744;2023-12-04T10:15:17;100581.84;;;1.19;62.11
74403;BME280;62837;51.082;13.744;2023-12-04T10:17:48;100570.66;;;1.18;62.64
74403;BME280;62837;51.082;13.744;2023-12-04T10:20:19;100569.26;;;1.19;62.58
74403;BME280;62837;51.082;13.744;2023-12-04T10:22:55;100578.26;;;1.20;62.51
74403;BME280;62837;51.082;13.744;2023-12-04T10:25:28;100559.20;;;1.14;62.31
74403;BME280;62837;51.082;13.744;2023-12-04T10:28:09;100562.27;;;1.17;62.50
74403;BME280;62837;51.082;13.744;2023-12-04T10:30:40;100551.98;;;1.13;62.25
74403;BME280;62837;51.082;13.744;2023-12-04T10:33:11;100550.08;;;1.11;62.35
74403;BME280;62837;51.082;13.744;2023-12-04T10:35:43;100547.70;;;1.09;62.27
74403;BME280;62837;51.082;13.744;2023-12-04T10:38:14;100552.70;;;1.06;61.98
74403;BME280;62837;51.082;13.744;2023-12-04T10:40:45;100550.50;;;0.95;61.57
74403;BME280;62837;51.082;13.744;2023-12-04T10:43:20;100548.41;;;0.89;62.08
74403;BME280;62837;51.082;13.744;2023-12-04T10:45:52;100544.70;;;0.85;62.27
74403;BME280;62837;51.082;13.744;2023-12-04T10:48:24;100543.41;;;0.85;62.28
74403;BME280;62837;51.082;13.744;2023-12-04T10:50:56;100542.29;;;0.88;62.50
74403;BME280;62837;51.082;13.744;2023-12-04T10:53:27;100540.84;;;0.93;62.34
74403;BME280;62837;51.082;13.744;2023-12-04T10:56:00;100541.23;;;0.91;62.10
74403;BME280;62837;51.082;13.744;2023-12-04T10:58:34;100534.88;;;0.91;61.92
74403;BME280;62837;51.082;13.744;2023-12-04T11:01:07;100539.75;;;0.90;61.89
74403;BME280;62837;51.082;13.744;2023-12-04T11:03:40;100539.30;;;0.89;62.09
74403;BME280;62837;51.082;13.744;2023-12-04T11:06:16;100532.30;;;0.90;61.96
74403;BME280;62837;51.082;13.744;2023-12-04T11:08:49;100532.65;;;0.95;61.82
74403;BME280;62837;51.082;13.744;2023-12-04T11:11:27;100522.66;;;1.01;61.71
74403;BME280;62837;51.082;13.744;2023-12-04T11:14:04;100520.70;;;1.05;61.44
74403;BME280;62837;51.082;13.744;2023-12-04T11:16:37;100522.52;;;1.07;61.41
74403;BME280;62837;51.082;13.744;2023-12-04T11:19:14;100515.39;;;1.11;61.57
74403;BME280;62837;51.082;13.744;2023-12-04T11:21:49;100515.16;;;1.18;61.57
74403;BME280;62837;51.082;13.744;2023-12-04T11:24:22;100502.08;;;1.18;61.09
74403;BME280;62837;51.082;13.744;2023-12-04T11:26:55;100490.09;;;1.14;61.16
74403;BME280;62837;51.082;13.744;2023-12-04T11:29:27;100481.64;;;1.15;61.39
74403;BME280;62837;51.082;13.744;2023-12-04T11:31:58;100484.38;;;1.18;61.47
74403;BME280;62837;51.082;13.744;2023-12-04T11:34:32;100470.29;;;1.18;61.25
74403;BME280;62837;51.082;13.744;2023-12-04T11:37:05;100461.17;;;1.18;61.52
74403;BME280;62837;51.082;13.744;2023-12-04T11:39:37;100463.35;;;1.21;61.37
74403;BME280;62837;51.082;13.744;2023-12-04T11:42:08;100451.38;;;1.20;61.13
74403;BME280;62837;51.082;13.744;2023-12-04T11:44:42;100454.17;;;1.19;61.05
74403;BME280;62837;51.082;13.744;2023-12-04T11:47:12;100436.80;;;1.18;61.25
74403;BME280;62837;51.082;13.744;2023-12-04T11:49:43;100434.48;;;1.18;61.42
74403;BME280;62837;51.082;13.744;2023-12-04T11:52:16;100425.88;;;1.14;60.88
74403;BME280;62837;51.082;13.744;2023-12-04T11:55:01;100416.10;;;1.08;61.28
74403;BME280;62837;51.082;13.744;2023-12-04T11:57:38;100415.68;;;1.04;61.10
74403;BME280;62837;51.082;13.744;2023-12-04T12:00:20;100410.77;;;0.99;61.10
74403;BME280;62837;51.082;13.744;2023-12-04T12:03:04;100403.67;;;0.97;61.22
74403;BME280;62837;51.082;13.744;2023-12-04T12:05:51;100399.41;;;0.94;60.89
74403;BME280;62837;51.082;13.744;2023-12-04T12:08:24;100393.48;;;0.92;61.29
74403;BME280;62837;51.082;13.744;2023-12-04T12:10:55;100390.95;;;0.95;61.56
74403;BME280;62837;51.082;13.744;2023-12-04T12:13:27;100388.13;;;0.98;61.29
74403;BME280;62837;51.082;13.744;2023-12-04T12:15:58;100389.45;;;0.99;61.14
74403;BME280;62837;51.082;13.744;2023-12-04T12:18:28;100379.55;;;0.95;60.94
74403;BME280;62837;51.082;13.744;2023-12-04T12:21:00;100378.34;;;0.89;61.09
74403;BME280;62837;51.082;13.744;2023-12-04T12:23:31;100370.66;;;0.87;61.14
74403;BME280;62837;51.082;13.744;2023-12-04T12:26:03;100376.98;;;0.85;61.12
74403;BME280;62837;51.082;13.744;2023-12-04T12:28:36;100369.67;;;0.85;61.05
74403;BME280;62837;51.082;13.744;2023-12-04T12:31:07;100368.06;;;0.86;61.17
74403;BME280;62837;51.082;13.744;2023-12-04T12:33:38;100366.02;;;0.86;61.21
74403;BME280;62837;51.082;13.744;2023-12-04T12:36:11;100364.60;;;0.85;61.40
74403;BME280;62837;51.082;13.744;2023-12-04T12:38:42;100352.48;;;0.84;61.32
74403;BME280;62837;51.082;13.744;2023-12-04T12:41:19;100357.73;;;0.84;61.16
74403;BME280;62837;51.082;13.744;2023-12-04T12:43:52;100352.38;;;0.82;61.11
74403;BME280;62837;51.082;13.744;2023-12-04T12:46:23;100347.88;;;0.80;61.23
74403;BME280;62837;51.082;13.744;2023-12-04T12:48:55;100344.19;;;0.82;61.50
74403;BME280;62837;51.082;13.744;2023-12-04T12:51:27;100342.52;;;0.85;61.61
74403;BME280;62837;51.082;13.744;2023-12-04T12:53:59;100349.73;;;0.85;61.32
74403;BME280;62837;51.082;13.744;2023-12-04T12:56:30;100347.36;;;0.83;61.30
74403;BME280;62837;51.082;13.744;2023-12-04T12:59:02;100350.80;;;0.83;61.77
74403;BME280;62837;51.082;13.744;2023-12-04T13:01:33;100354.03;;;0.84;61.56
74403;BME280;62837;51.082;13.744;2023-12-04T13:04:04;100352.57;;;0.83;61.62
74403;BME280;62837;51.082;13.744;2023-12-04T13:06:35;100353.47;;;0.82;61.69